KBRG/BRG METAR and TAF weather

Enter ICAO airport designator
Station Type Date Time Source
KBRG METAR 2019/09/20 20:15 UTC NOAA

KBRG 202015Z AUTO 20014G22KT 10SM SCT110 30/01 A2999 RMK AO2 T03020013


Station Type Date Time Source
KBRG Decoded METAR 2019/09/20 20:15 UTC NOAA

Station name not available
Sep 20, 2019 - 04:15 PM EDT / 2019.09.20 2015 UTC
Wind: from the SSW (200 degrees) at 16 MPH (14 KT) gusting to 25 MPH (22 KT):0
Visibility: 10 mile(s):0
Sky conditions: partly cloudy
Temperature: 86.4 F (30.2 C)
Dew Point: 34.3 F (1.3 C)
Relative Humidity: 15%
Pressure (altimeter): 29.99 in. Hg (1015 hPa)
ob: KBRG 202015Z AUTO 20014G22KT 10SM SCT110 30/01 A2999 RMK AO2 T03020013
cycle: 20

Station Type Date Time Source
KBRG TAF 2012/07/03 12:12 UTC NOAA

TAF SKBRG 031000Z 031212 VRB02KT 9999 FEW017 SCT080
TEMPO 0312/0317 11005KT VCTS - DZRAFEW015CB BKN070
TEMPO 0318/0323 TSRA FEW017CB BKN070
TEMPO 0400/0402 VCTS FEW020CB
TEMPO 0402/0406 -DZ SCT015CB
TEMPO 0408/0412 00000KT 5000 BCFG FEW005 TX23/0319Z TN10/0411Z

Example: see airport list